sensor_id;sensor_type;location;lat;lon;timestamp;pressure;altitude;pressure_sealevel;temperature;humidity
10145;BME280;5113;41.822;23.564;2023-03-20T00:00:28;-10971.72;;;1.35;100.00
10145;BME280;5113;41.822;23.564;2023-03-20T00:03:35;-10948.06;;;0.49;100.00
10145;BME280;5113;41.822;23.564;2023-03-20T00:06:43;-10943.84;;;0.34;100.00
10145;BME280;5113;41.822;23.564;2023-03-20T00:09:49;-10942.72;;;0.30;100.00
10145;BME280;5113;41.822;23.564;2023-03-20T00:12:55;-10944.25;;;0.36;100.00
10145;BME280;5113;41.822;23.564;2023-03-20T00:16:02;-10960.94;;;0.96;100.00
10145;BME280;5113;41.822;23.564;2023-03-20T00:19:14;-10959.81;;;0.92;100.00
10145;BME280;5113;41.822;23.564;2023-03-20T00:22:23;-10962.19;;;1.01;100.00
10145;BME280;5113;41.822;23.564;2023-03-20T00:25:29;-10952.25;;;0.64;100.00
10145;BME280;5113;41.822;23.564;2023-03-20T00:28:37;-10949.44;;;0.54;100.00
10145;BME280;5113;41.822;23.564;2023-03-20T00:31:45;-10953.09;;;0.68;100.00
10145;BME280;5113;41.822;23.564;2023-03-20T00:34:51;-10949.88;;;0.56;100.00
10145;BME280;5113;41.822;23.564;2023-03-20T00:37:59;-10958.69;;;0.88;100.00
10145;BME280;5113;41.822;23.564;2023-03-20T00:41:19;-10950.72;;;0.59;100.00
10145;BME280;5113;41.822;23.564;2023-03-20T00:44:31;-10963.88;;;1.07;100.00
10145;BME280;5113;41.822;23.564;2023-03-20T00:47:39;-10959.25;;;0.90;100.00
10145;BME280;5113;41.822;23.564;2023-03-20T00:50:45;-10966.25;;;1.15;100.00
10145;BME280;5113;41.822;23.564;2023-03-20T00:53:54;-10953.09;;;0.68;100.00
10145;BME280;5113;41.822;23.564;2023-03-20T00:57:03;-10943.28;;;0.32;100.00
10145;BME280;5113;41.822;23.564;2023-03-20T01:00:30;-10941.75;;;0.26;100.00
10145;BME280;5113;41.822;23.564;2023-03-20T01:03:38;-10939.50;;;0.18;100.00
10145;BME280;5113;41.822;23.564;2023-03-20T01:06:45;-10943.56;;;0.33;100.00
10145;BME280;5113;41.822;23.564;2023-03-20T01:09:53;-10943.56;;;0.33;100.00
10145;BME280;5113;41.822;23.564;2023-03-20T01:13:00;-10934.03;;;-0.02;100.00
10145;BME280;5113;41.822;23.564;2023-03-20T01:16:18;-10926.75;;;-0.28;100.00
10145;BME280;5113;41.822;23.564;2023-03-20T01:19:25;-10927.59;;;-0.25;100.00
10145;BME280;5113;41.822;23.564;2023-03-20T01:22:31;-10925.63;;;-0.32;100.00
10145;BME280;5113;41.822;23.564;2023-03-20T01:25:39;-10922.97;;;-0.42;100.00
10145;BME280;5113;41.822;23.564;2023-03-20T01:28:46;-10934.59;;;0.00;100.00
10145;BME280;5113;41.822;23.564;2023-03-20T01:31:52;-10925.63;;;-0.32;100.00
10145;BME280;5113;41.822;23.564;2023-03-20T01:34:58;-10919.34;;;-0.55;100.00
10145;BME280;5113;41.822;23.564;2023-03-20T01:38:10;-10928.28;;;-0.22;100.00
10145;BME280;5113;41.822;23.564;2023-03-20T01:41:18;-10924.94;;;-0.35;100.00
10145;BME280;5113;41.822;23.564;2023-03-20T01:44:29;-10921.28;;;-0.48;100.00
10145;BME280;5113;41.822;23.564;2023-03-20T01:47:36;-10932.22;;;-0.08;100.00
10145;BME280;5113;41.822;23.564;2023-03-20T01:50:42;-10936.56;;;0.08;100.00
10145;BME280;5113;41.822;23.564;2023-03-20T01:53:52;-10945.53;;;0.40;100.00
10145;BME280;5113;41.822;23.564;2023-03-20T01:57:04;-10951.97;;;0.63;100.00
10145;BME280;5113;41.822;23.564;2023-03-20T02:00:14;-10948.59;;;0.51;100.00
10145;BME280;5113;41.822;23.564;2023-03-20T02:03:20;-10930.13;;;-0.16;100.00
10145;BME280;5113;41.822;23.564;2023-03-20T02:06:27;-10929.41;;;-0.18;100.00
10145;BME280;5113;41.822;23.564;2023-03-20T02:09:33;-10927.59;;;-0.25;100.00
10145;BME280;5113;41.822;23.564;2023-03-20T02:12:41;-10925.63;;;-0.32;100.00
10145;BME280;5113;41.822;23.564;2023-03-20T02:15:57;-10932.09;;;-0.09;100.00
10145;BME280;5113;41.822;23.564;2023-03-20T02:19:05;-10930.13;;;-0.16;100.00
10145;BME280;5113;41.822;23.564;2023-03-20T02:22:44;-10919.75;;;-0.53;100.00
10145;BME280;5113;41.822;23.564;2023-03-20T02:26:12;-10916.13;;;-0.67;100.00
10145;BME280;5113;41.822;23.564;2023-03-20T02:29:43;-10918.50;;;-0.58;100.00
10145;BME280;5113;41.822;23.564;2023-03-20T02:36:53;-10914.44;;;-0.73;100.00
10145;BME280;5113;41.822;23.564;2023-03-20T02:40:16;-10923.69;;;-0.39;100.00
10145;BME280;5113;41.822;23.564;2023-03-20T02:43:31;-10911.91;;;-0.82;100.00
10145;BME280;5113;41.822;23.564;2023-03-20T02:46:46;-10929.56;;;-0.18;100.00
10145;BME280;5113;41.822;23.564;2023-03-20T02:50:02;-10920.31;;;-0.51;100.00
10145;BME280;5113;41.822;23.564;2023-03-20T02:53:21;-10930.13;;;-0.16;100.00
10145;BME280;5113;41.822;23.564;2023-03-20T02:56:35;-10930.53;;;-0.14;100.00
10145;BME280;5113;41.822;23.564;2023-03-20T02:59:45;-10937.53;;;0.11;100.00
10145;BME280;5113;41.822;23.564;2023-03-20T03:02:59;-10935.72;;;0.05;100.00
10145;BME280;5113;41.822;23.564;2023-03-20T03:06:10;-10936.84;;;0.09;100.00
10145;BME280;5113;41.822;23.564;2023-03-20T03:09:20;-10928.56;;;-0.21;100.00
10145;BME280;5113;41.822;23.564;2023-03-20T03:12:33;-10923.13;;;-0.41;100.00
10145;BME280;5113;41.822;23.564;2023-03-20T03:15:43;-10908.69;;;-0.93;100.00
10145;BME280;5113;41.822;23.564;2023-03-20T03:19:00;-10916.97;;;-0.63;100.00
10145;BME280;5113;41.822;23.564;2023-03-20T03:22:09;-10904.78;;;-1.08;100.00
10145;BME280;5113;41.822;23.564;2023-03-20T03:25:16;-10925.50;;;-0.32;100.00
10145;BME280;5113;41.822;23.564;2023-03-20T03:28:28;-10917.25;;;-0.62;100.00
10145;BME280;5113;41.822;23.564;2023-03-20T03:31:41;-10910.78;;;-0.86;100.00
10145;BME280;5113;41.822;23.564;2023-03-20T03:34:48;-10916.41;;;-0.65;100.00
10145;BME280;5113;41.822;23.564;2023-03-20T03:37:58;-10915.56;;;-0.69;100.00
10145;BME280;5113;41.822;23.564;2023-03-20T03:41:16;-10901.56;;;-1.19;100.00
10145;BME280;5113;41.822;23.564;2023-03-20T03:44:29;-10905.75;;;-1.04;100.00
10145;BME280;5113;41.822;23.564;2023-03-20T03:47:38;-10910.22;;;-0.88;100.00
10145;BME280;5113;41.822;23.564;2023-03-20T03:50:49;-10902.53;;;-1.16;100.00
10145;BME280;5113;41.822;23.564;2023-03-20T03:54:00;-10905.47;;;-1.05;100.00
10145;BME280;5113;41.822;23.564;2023-03-20T03:57:09;-10907.44;;;-0.98;100.00
10145;BME280;5113;41.822;23.564;2023-03-20T04:00:22;-10905.19;;;-1.06;100.00
10145;BME280;5113;41.822;23.564;2023-03-20T04:03:32;-10911.06;;;-0.85;100.00
10145;BME280;5113;41.822;23.564;2023-03-20T04:06:41;-10904.63;;;-1.08;100.00
10145;BME280;5113;41.822;23.564;2023-03-20T04:09:48;-10912.06;;;-0.81;100.00
10145;BME280;5113;41.822;23.564;2023-03-20T04:12:54;-10909.13;;;-0.92;100.00
10145;BME280;5113;41.822;23.564;2023-03-20T04:16:03;-10910.22;;;-0.88;100.00
10145;BME280;5113;41.822;23.564;2023-03-20T04:19:09;-10919.63;;;-0.54;100.00
10145;BME280;5113;41.822;23.564;2023-03-20T04:22:16;-10902.53;;;-1.16;100.00
10145;BME280;5113;41.822;23.564;2023-03-20T04:25:23;-10888.13;;;-1.68;100.00
10145;BME280;5113;41.822;23.564;2023-03-20T04:28:31;-10899.59;;;-1.26;100.00
10145;BME280;5113;41.822;23.564;2023-03-20T04:31:39;-10891.63;;;-1.55;100.00
10145;BME280;5113;41.822;23.564;2023-03-20T04:34:46;-10895.13;;;-1.43;100.00
10145;BME280;5113;41.822;23.564;2023-03-20T04:37:53;-10924.50;;;-0.36;100.00
10145;BME280;5113;41.822;23.564;2023-03-20T04:40:59;-10923.53;;;-0.40;100.00
10145;BME280;5113;41.822;23.564;2023-03-20T04:44:05;-10932.78;;;-0.06;100.00
10145;BME280;5113;41.822;23.564;2023-03-20T04:47:13;-10927.47;;;-0.25;100.00
10145;BME280;5113;41.822;23.564;2023-03-20T04:50:19;-10930.97;;;-0.13;100.00
10145;BME280;5113;41.822;23.564;2023-03-20T04:53:26;-10929.28;;;-0.19;100.00
10145;BME280;5113;41.822;23.564;2023-03-20T04:56:31;-10928.72;;;-0.21;100.00
10145;BME280;5113;41.822;23.564;2023-03-20T04:59:38;-10917.38;;;-0.62;100.00
10145;BME280;5113;41.822;23.564;2023-03-20T05:02:45;-10900.16;;;-1.24;100.00
10145;BME280;5113;41.822;23.564;2023-03-20T05:05:52;-10906.72;;;-1.01;100.00
10145;BME280;5113;41.822;23.564;2023-03-20T05:08:58;-10908.56;;;-0.94;100.00
10145;BME280;5113;41.822;23.564;2023-03-20T05:12:06;-10922.84;;;-0.42;100.00
10145;BME280;5113;41.822;23.564;2023-03-20T05:15:12;-10941.88;;;0.27;100.00
10145;BME280;5113;41.822;23.564;2023-03-20T05:18:20;-10938.38;;;0.14;100.00
10145;BME280;5113;41.822;23.564;2023-03-20T05:21:26;-10937.41;;;0.11;100.00
10145;BME280;5113;41.822;23.564;2023-03-20T05:24:32;-10933.63;;;-0.03;100.00
10145;BME280;5113;41.822;23.564;2023-03-20T05:27:39;-10947.22;;;0.46;100.00
10145;BME280;5113;41.822;23.564;2023-03-20T05:30:45;-10946.22;;;0.43;100.00
10145;BME280;5113;41.822;23.564;2023-03-20T05:33:53;-10946.66;;;0.44;100.00
10145;BME280;5113;41.822;23.564;2023-03-20T05:36:59;-10952.25;;;0.64;100.00
10145;BME280;5113;41.822;23.564;2023-03-20T05:40:06;-10949.44;;;0.54;100.00
10145;BME280;5113;41.822;23.564;2023-03-20T05:43:13;-10963.47;;;1.05;100.00
10145;BME280;5113;41.822;23.564;2023-03-20T05:46:20;-10959.25;;;0.90;100.00
10145;BME280;5113;41.822;23.564;2023-03-20T05:49:28;-10965.41;;;1.12;100.00
10145;BME280;5113;41.822;23.564;2023-03-20T05:52:34;-10970.19;;;1.29;100.00
10145;BME280;5113;41.822;23.564;2023-03-20T05:55:41;-10972.84;;;1.39;100.00
10145;BME280;5113;41.822;23.564;2023-03-20T05:58:48;-10974.66;;;1.46;100.00
10145;BME280;5113;41.822;23.564;2023-03-20T06:01:56;-10970.31;;;1.30;100.00
10145;BME280;5113;41.822;23.564;2023-03-20T06:05:04;-10969.34;;;1.26;100.00
10145;BME280;5113;41.822;23.564;2023-03-20T06:08:10;-10978.31;;;1.59;100.00
10145;BME280;5113;41.822;23.564;2023-03-20T06:11:17;-10992.75;;;2.11;100.00
10145;BME280;5113;41.822;23.564;2023-03-20T06:14:23;-10999.63;;;2.36;100.00
10145;BME280;5113;41.822;23.564;2023-03-20T06:17:29;-11014.19;;;2.89;100.00
10145;BME280;5113;41.822;23.564;2023-03-20T06:20:36;-11021.78;;;3.16;100.00
10145;BME280;5113;41.822;23.564;2023-03-20T06:23:43;-11031.59;;;3.52;100.00
10145;BME280;5113;41.822;23.564;2023-03-20T06:26:49;-11021.50;;;3.15;100.00
10145;BME280;5113;41.822;23.564;2023-03-20T06:29:55;-11045.06;;;4.01;100.00
10145;BME280;5113;41.822;23.564;2023-03-20T06:33:02;-11045.34;;;4.02;100.00
10145;BME280;5113;41.822;23.564;2023-03-20T06:36:10;-11048.16;;;4.12;100.00
10145;BME280;5113;41.822;23.564;2023-03-20T06:39:17;-11050.81;;;4.21;100.00
10145;BME280;5113;41.822;23.564;2023-03-20T06:42:23;-11069.19;;;4.88;100.00
10145;BME280;5113;41.822;23.564;2023-03-20T06:45:30;-11072.56;;;5.00;98.67
10145;BME280;5113;41.822;23.564;2023-03-20T06:48:37;-11080.28;;;5.28;99.41
10145;BME280;5113;41.822;23.564;2023-03-20T06:51:44;-11088.56;;;5.58;97.56
10145;BME280;5113;41.822;23.564;2023-03-20T06:54:51;-11079.16;;;5.24;98.67
10145;BME280;5113;41.822;23.564;2023-03-20T06:57:58;-11082.94;;;5.38;98.56
10145;BME280;5113;41.822;23.564;2023-03-20T07:01:08;-11088.00;;;5.56;97.51
10145;BME280;5113;41.822;23.564;2023-03-20T07:04:15;-11084.06;;;5.42;98.91
10145;BME280;5113;41.822;23.564;2023-03-20T07:07:22;-11091.25;;;5.68;97.40
10145;BME280;5113;41.822;23.564;2023-03-20T07:10:29;-11095.72;;;5.84;93.54
10145;BME280;5113;41.822;23.564;2023-03-20T07:13:36;-11111.31;;;6.40;90.22
10145;BME280;5113;41.822;23.564;2023-03-20T07:16:43;-11119.59;;;6.70;86.84
10145;BME280;5113;41.822;23.564;2023-03-20T07:19:49;-11113.16;;;6.47;87.32
10145;BME280;5113;41.822;23.564;2023-03-20T07:22:57;-11118.06;;;6.65;87.44
10145;BME280;5113;41.822;23.564;2023-03-20T07:26:04;-11132.09;;;7.15;85.75
10145;BME280;5113;41.822;23.564;2023-03-20T07:29:10;-11141.81;;;7.50;84.69
10145;BME280;5113;41.822;23.564;2023-03-20T07:32:17;-11145.47;;;7.63;84.01
10145;BME280;5113;41.822;23.564;2023-03-20T07:35:24;-11143.22;;;7.55;82.96
10145;BME280;5113;41.822;23.564;2023-03-20T07:38:32;-11152.34;;;7.88;81.98
10145;BME280;5113;41.822;23.564;2023-03-20T07:41:38;-11148.13;;;7.73;77.50
10145;BME280;5113;41.822;23.564;2023-03-20T07:44:45;-11160.06;;;8.16;79.08
10145;BME280;5113;41.822;23.564;2023-03-20T07:47:51;-11179.75;;;8.87;76.75
10145;BME280;5113;41.822;23.564;2023-03-20T07:50:58;-11175.81;;;8.73;74.72
10145;BME280;5113;41.822;23.564;2023-03-20T07:54:05;-11184.66;;;9.05;74.38
10145;BME280;5113;41.822;23.564;2023-03-20T07:57:12;-11169.91;;;8.52;75.32
10145;BME280;5113;41.822;23.564;2023-03-20T08:00:18;-11170.91;;;8.55;74.22
10145;BME280;5113;41.822;23.564;2023-03-20T08:03:25;-11193.53;;;9.37;71.20
10145;BME280;5113;41.822;23.564;2023-03-20T08:06:32;-11196.19;;;9.47;68.89
10145;BME280;5113;41.822;23.564;2023-03-20T08:09:40;-11209.56;;;9.95;67.93
10145;BME280;5113;41.822;23.564;2023-03-20T08:12:46;-11203.22;;;9.72;67.82
10145;BME280;5113;41.822;23.564;2023-03-20T08:15:52;-11200.13;;;9.61;68.04
10145;BME280;5113;41.822;23.564;2023-03-20T08:18:59;-11213.06;;;10.08;66.27
10145;BME280;5113;41.822;23.564;2023-03-20T08:22:07;-11214.47;;;10.13;63.73
10145;BME280;5113;41.822;23.564;2023-03-20T08:25:14;-11227.28;;;10.59;61.56
10145;BME280;5113;41.822;23.564;2023-03-20T08:28:21;-11229.09;;;10.66;62.69
10145;BME280;5113;41.822;23.564;2023-03-20T08:31:48;-11231.06;;;10.73;60.53
10145;BME280;5113;41.822;23.564;2023-03-20T08:34:54;-11244.03;;;11.19;57.82
10145;BME280;5113;41.822;23.564;2023-03-20T08:38:01;-11243.03;;;11.16;55.26
10145;BME280;5113;41.822;23.564;2023-03-20T08:41:09;-11235.03;;;10.87;57.81
10145;BME280;5113;41.822;23.564;2023-03-20T08:44:15;-11254.00;;;11.55;56.13
10145;BME280;5113;41.822;23.564;2023-03-20T08:47:21;-11274.69;;;12.30;53.84
10145;BME280;5113;41.822;23.564;2023-03-20T08:50:28;-11269.22;;;12.10;54.07
10145;BME280;5113;41.822;23.564;2023-03-20T08:53:35;-11268.78;;;12.09;53.36
10145;BME280;5113;41.822;23.564;2023-03-20T08:56:43;-11255.28;;;11.60;53.91
10145;BME280;5113;41.822;23.564;2023-03-20T08:59:49;-11279.47;;;12.47;51.80
10145;BME280;5113;41.822;23.564;2023-03-20T09:02:56;-11286.66;;;12.73;50.23
10145;BME280;5113;41.822;23.564;2023-03-20T09:06:04;-11305.81;;;13.42;49.51
10145;BME280;5113;41.822;23.564;2023-03-20T09:09:11;-11298.50;;;13.16;50.27
10145;BME280;5113;41.822;23.564;2023-03-20T09:12:21;-11303.97;;;13.36;49.50
10145;BME280;5113;41.822;23.564;2023-03-20T09:15:27;-11307.63;;;13.49;48.76
10145;BME280;5113;41.822;23.564;2023-03-20T09:18:34;-11315.53;;;13.77;47.16
10145;BME280;5113;41.822;23.564;2023-03-20T09:21:40;-11330.16;;;14.30;46.66
10145;BME280;5113;41.822;23.564;2023-03-20T09:24:47;-11319.03;;;13.90;47.20
10145;BME280;5113;41.822;23.564;2023-03-20T09:27:54;-11343.13;;;14.77;45.96
10145;BME280;5113;41.822;23.564;2023-03-20T09:31:01;-11344.09;;;14.80;46.13
10145;BME280;5113;41.822;23.564;2023-03-20T09:34:07;-11341.72;;;14.72;46.92
10145;BME280;5113;41.822;23.564;2023-03-20T09:37:13;-11340.59;;;14.68;45.16
10145;BME280;5113;41.822;23.564;2023-03-20T09:40:23;-11345.38;;;14.85;44.72
10145;BME280;5113;41.822;23.564;2023-03-20T09:43:45;-11337.91;;;14.58;44.26
10145;BME280;5113;41.822;23.564;2023-03-20T09:47:06;-11344.81;;;14.83;44.10
10145;BME280;5113;41.822;23.564;2023-03-20T09:50:29;-11351.00;;;15.05;43.44
10145;BME280;5113;41.822;23.564;2023-03-20T09:53:40;-11375.25;;;15.93;42.63
10145;BME280;5113;41.822;23.564;2023-03-20T09:56:48;-11379.19;;;16.07;42.97
10145;BME280;5113;41.822;23.564;2023-03-20T09:59:58;-11394.69;;;16.63;40.94
10145;BME280;5113;41.822;23.564;2023-03-20T10:03:14;-11403.72;;;16.95;39.74
10145;BME280;5113;41.822;23.564;2023-03-20T10:06:22;-11382.84;;;16.20;40.45
10145;BME280;5113;41.822;23.564;2023-03-20T10:09:29;-11392.00;;;16.53;41.55
10145;BME280;5113;41.822;23.564;2023-03-20T10:12:46;-11404.56;;;16.98;39.32
10145;BME280;5113;41.822;23.564;2023-03-20T10:15:59;-11413.28;;;17.30;39.53
10145;BME280;5113;41.822;23.564;2023-03-20T10:19:16;-11410.75;;;17.21;39.33
10145;BME280;5113;41.822;23.564;2023-03-20T10:22:29;-11427.81;;;17.82;38.90
10145;BME280;5113;41.822;23.564;2023-03-20T10:25:41;-11408.22;;;17.11;38.91
10145;BME280;5113;41.822;23.564;2023-03-20T10:28:51;-11419.50;;;17.52;39.38
10145;BME280;5113;41.822;23.564;2023-03-20T10:32:05;-11437.53;;;18.17;39.52
10145;BME280;5113;41.822;23.564;2023-03-20T10:35:20;-11452.19;;;18.70;39.48
10145;BME280;5113;41.822;23.564;2023-03-20T10:38:35;-11419.78;;;17.53;37.06
10145;BME280;5113;41.822;23.564;2023-03-20T10:41:50;-11428.66;;;17.85;37.20
10145;BME280;5113;41.822;23.564;2023-03-20T10:45:01;-11452.91;;;18.72;36.64
10145;BME280;5113;41.822;23.564;2023-03-20T10:48:16;-11457.84;;;18.90;35.54
10145;BME280;5113;41.822;23.564;2023-03-20T10:51:40;-11450.38;;;18.63;35.62
10145;BME280;5113;41.822;23.564;2023-03-20T10:54:54;-11441.34;;;18.31;35.59
10145;BME280;5113;41.822;23.564;2023-03-20T10:58:07;-11450.22;;;18.63;35.43
10145;BME280;5113;41.822;23.564;2023-03-20T11:01:18;-11467.00;;;19.23;34.77
10145;BME280;5113;41.822;23.564;2023-03-20T11:04:26;-11460.38;;;18.99;34.28
10145;BME280;5113;41.822;23.564;2023-03-20T11:07:34;-11446.00;;;18.47;35.17
10145;BME280;5113;41.822;23.564;2023-03-20T11:10:42;-11477.31;;;19.60;33.49
10145;BME280;5113;41.822;23.564;2023-03-20T11:13:50;-11474.75;;;19.51;33.39
10145;BME280;5113;41.822;23.564;2023-03-20T11:17:00;-11480.69;;;19.72;32.98
10145;BME280;5113;41.822;23.564;2023-03-20T11:20:12;-11472.66;;;19.43;33.60
10145;BME280;5113;41.822;23.564;2023-03-20T11:23:23;-11493.25;;;20.18;32.87
10145;BME280;5113;41.822;23.564;2023-03-20T11:26:34;-11485.75;;;19.91;32.21
10145;BME280;5113;41.822;23.564;2023-03-20T11:29:42;-11488.88;;;20.02;31.72
10145;BME280;5113;41.822;23.564;2023-03-20T11:32:53;-11465.88;;;19.19;32.35
10145;BME280;5113;41.822;23.564;2023-03-20T11:36:10;-11499.16;;;20.39;31.77
10145;BME280;5113;41.822;23.564;2023-03-20T11:39:22;-11482.09;;;19.77;30.67
10145;BME280;5113;41.822;23.564;2023-03-20T11:42:29;-11479.00;;;19.66;30.33
10145;BME280;5113;41.822;23.564;2023-03-20T11:45:37;-11498.75;;;20.37;29.81
10145;BME280;5113;41.822;23.564;2023-03-20T11:48:45;-11500.72;;;20.44;28.91
10145;BME280;5113;41.822;23.564;2023-03-20T11:51:53;-11495.22;;;20.25;29.17
10145;BME280;5113;41.822;23.564;2023-03-20T11:55:04;-11514.13;;;20.93;27.87
10145;BME280;5113;41.822;23.564;2023-03-20T11:58:15;-11520.75;;;21.17;28.32
10145;BME280;5113;41.822;23.564;2023-03-20T12:01:21;-11499.59;;;20.40;28.32
10145;BME280;5113;41.822;23.564;2023-03-20T12:04:30;-11516.50;;;21.01;27.54
10145;BME280;5113;41.822;23.564;2023-03-20T12:07:38;-11516.22;;;21.00;28.38
10145;BME280;5113;41.822;23.564;2023-03-20T12:10:50;-11521.03;;;21.18;27.80
10145;BME280;5113;41.822;23.564;2023-03-20T12:14:00;-11524.13;;;21.29;28.13
10145;BME280;5113;41.822;23.564;2023-03-20T12:17:31;-11507.50;;;20.69;27.48
10145;BME280;5113;41.822;23.564;2023-03-20T12:20:43;-11512.00;;;20.85;27.54
10145;BME280;5113;41.822;23.564;2023-03-20T12:23:55;-11532.19;;;21.58;27.39
10145;BME280;5113;41.822;23.564;2023-03-20T12:27:20;-11518.06;;;21.07;26.96
10145;BME280;5113;41.822;23.564;2023-03-20T12:30:39;-11522.44;;;21.23;27.28
10145;BME280;5113;41.822;23.564;2023-03-20T12:33:52;-11516.50;;;21.01;27.37
10145;BME280;5113;41.822;23.564;2023-03-20T12:37:01;-11517.94;;;21.06;28.00
10145;BME280;5113;41.822;23.564;2023-03-20T12:40:14;-11523.28;;;21.26;28.59
10145;BME280;5113;41.822;23.564;2023-03-20T12:43:24;-11505.78;;;20.63;27.66
10145;BME280;5113;41.822;23.564;2023-03-20T12:46:37;-11515.94;;;20.99;28.31
10145;BME280;5113;41.822;23.564;2023-03-20T12:49:54;-11510.44;;;20.80;28.32
10145;BME280;5113;41.822;23.564;2023-03-20T12:53:19;-11525.53;;;21.34;28.55
10145;BME280;5113;41.822;23.564;2023-03-20T12:56:46;-11518.50;;;21.08;27.34
10145;BME280;5113;41.822;23.564;2023-03-20T13:00:08;-11537.53;;;21.77;27.25
10145;BME280;5113;41.822;23.564;2023-03-20T13:03:26;-11540.63;;;21.88;27.57
10145;BME280;5113;41.822;23.564;2023-03-20T13:06:44;-11546.16;;;22.08;27.10
10145;BME280;5113;41.822;23.564;2023-03-20T13:10:09;-11543.75;;;21.99;26.30
10145;BME280;5113;41.822;23.564;2023-03-20T13:13:25;-11547.28;;;22.12;25.95
10145;BME280;5113;41.822;23.564;2023-03-20T13:16:42;-11524.00;;;21.28;26.54
10145;BME280;5113;41.822;23.564;2023-03-20T13:20:04;-11529.06;;;21.47;26.32
10145;BME280;5113;41.822;23.564;2023-03-20T13:23:21;-11524.28;;;21.29;26.98
10145;BME280;5113;41.822;23.564;2023-03-20T13:26:34;-11543.47;;;21.98;25.90
10145;BME280;5113;41.822;23.564;2023-03-20T13:29:49;-11536.56;;;21.73;26.70
10145;BME280;5113;41.822;23.564;2023-03-20T13:33:04;-11528.94;;;21.46;26.52
10145;BME280;5113;41.822;23.564;2023-03-20T13:36:24;-11537.69;;;21.78;26.69
10145;BME280;5113;41.822;23.564;2023-03-20T13:39:39;-11523.00;;;21.25;26.66
10145;BME280;5113;41.822;23.564;2023-03-20T13:42:52;-11519.19;;;21.11;27.07
10145;BME280;5113;41.822;23.564;2023-03-20T13:46:03;-11540.22;;;21.87;26.27
10145;BME280;5113;41.822;23.564;2023-03-20T13:49:14;-11525.25;;;21.33;26.64
10145;BME280;5113;41.822;23.564;2023-03-20T13:52:29;-11515.09;;;20.96;27.28
10145;BME280;5113;41.822;23.564;2023-03-20T13:55:42;-11535.84;;;21.71;26.62
10145;BME280;5113;41.822;23.564;2023-03-20T13:58:57;-11563.91;;;22.72;26.21
10145;BME280;5113;41.822;23.564;2023-03-20T14:02:20;-11541.63;;;21.92;26.46
10145;BME280;5113;41.822;23.564;2023-03-20T14:05:35;-11557.56;;;22.49;25.98
10145;BME280;5113;41.822;23.564;2023-03-20T14:08:47;-11538.25;;;21.80;25.29
10145;BME280;5113;41.822;23.564;2023-03-20T14:11:55;-11530.34;;;21.51;26.25
10145;BME280;5113;41.822;23.564;2023-03-20T14:15:03;-11528.50;;;21.45;26.34
10145;BME280;5113;41.822;23.564;2023-03-20T14:18:15;-11544.31;;;22.01;25.39
10145;BME280;5113;41.822;23.564;2023-03-20T14:21:23;-11516.66;;;21.02;26.73
10145;BME280;5113;41.822;23.564;2023-03-20T14:24:34;-11543.47;;;21.98;25.81
10145;BME280;5113;41.822;23.564;2023-03-20T14:27:53;-11543.19;;;21.97;26.41
10145;BME280;5113;41.822;23.564;2023-03-20T14:31:12;-11521.59;;;21.20;26.92
10145;BME280;5113;41.822;23.564;2023-03-20T14:34:21;-11547.97;;;22.15;26.64
10145;BME280;5113;41.822;23.564;2023-03-20T14:37:36;-11550.94;;;22.25;26.06
10145;BME280;5113;41.822;23.564;2023-03-20T14:40:50;-11526.94;;;21.39;26.00
10145;BME280;5113;41.822;23.564;2023-03-20T14:44:05;-11529.50;;;21.48;26.10
10145;BME280;5113;41.822;23.564;2023-03-20T14:47:25;-11525.25;;;21.33;26.47
10145;BME280;5113;41.822;23.564;2023-03-20T14:50:38;-11529.78;;;21.49;26.61
10145;BME280;5113;41.822;23.564;2023-03-20T14:53:52;-11510.88;;;20.81;27.62
10145;BME280;5113;41.822;23.564;2023-03-20T14:57:08;-11499.88;;;20.41;28.15
10145;BME280;5113;41.822;23.564;2023-03-20T15:00:17;-11490.84;;;20.09;28.81
10145;BME280;5113;41.822;23.564;2023-03-20T15:03:24;-11490.13;;;20.06;28.58
10145;BME280;5113;41.822;23.564;2023-03-20T15:06:33;-11482.53;;;19.79;29.03
10145;BME280;5113;41.822;23.564;2023-03-20T15:09:42;-11474.19;;;19.49;29.05
10145;BME280;5113;41.822;23.564;2023-03-20T15:12:50;-11473.06;;;19.45;28.76
10145;BME280;5113;41.822;23.564;2023-03-20T15:15:58;-11465.16;;;19.17;30.26
10145;BME280;5113;41.822;23.564;2023-03-20T15:19:16;-11462.06;;;19.05;31.30
10145;BME280;5113;41.822;23.564;2023-03-20T15:22:24;-11449.94;;;18.62;32.40
10145;BME280;5113;41.822;23.564;2023-03-20T15:25:36;-11444.59;;;18.42;32.33
10145;BME280;5113;41.822;23.564;2023-03-20T15:28:44;-11433.88;;;18.04;32.39
10145;BME280;5113;41.822;23.564;2023-03-20T15:31:54;-11436.28;;;18.12;31.34
10145;BME280;5113;41.822;23.564;2023-03-20T15:35:18;-11449.38;;;18.60;30.43
10145;BME280;5113;41.822;23.564;2023-03-20T15:38:32;-11447.13;;;18.52;31.47
10145;BME280;5113;41.822;23.564;2023-03-20T15:41:42;-11448.53;;;18.57;30.65
10145;BME280;5113;41.822;23.564;2023-03-20T15:44:51;-11440.34;;;18.27;31.65
10145;BME280;5113;41.822;23.564;2023-03-20T15:48:00;-11432.03;;;17.97;34.15
10145;BME280;5113;41.822;23.564;2023-03-20T15:51:09;-11427.25;;;17.80;32.54
10145;BME280;5113;41.822;23.564;2023-03-20T15:54:17;-11413.56;;;17.31;33.70
10145;BME280;5113;41.822;23.564;2023-03-20T15:57:29;-11423.44;;;17.66;34.60
10145;BME280;5113;41.822;23.564;2023-03-20T16:00:43;-11408.50;;;17.12;37.86
10145;BME280;5113;41.822;23.564;2023-03-20T16:03:51;-11397.94;;;16.74;39.38
10145;BME280;5113;41.822;23.564;2023-03-20T16:06:59;-11392.16;;;16.54;39.37
10145;BME280;5113;41.822;23.564;2023-03-20T16:10:16;-11390.19;;;16.46;40.36
10145;BME280;5113;41.822;23.564;2023-03-20T16:13:22;-11386.50;;;16.33;40.66
10145;BME280;5113;41.822;23.564;2023-03-20T16:16:30;-11383.00;;;16.21;41.58
10145;BME280;5113;41.822;23.564;2023-03-20T16:19:41;-11377.06;;;15.99;42.56
10145;BME280;5113;41.822;23.564;2023-03-20T16:22:49;-11368.75;;;15.69;43.17
10145;BME280;5113;41.822;23.564;2023-03-20T16:25:58;-11363.25;;;15.49;43.50
10145;BME280;5113;41.822;23.564;2023-03-20T16:29:05;-11345.94;;;14.87;45.43
10145;BME280;5113;41.822;23.564;2023-03-20T16:32:19;-11352.97;;;15.12;44.70
10145;BME280;5113;41.822;23.564;2023-03-20T16:35:36;-11349.75;;;15.01;44.79